Terminal Aerodrome Forecast
Issued by NWS

Current Version | Previous Version | Text Only | Print | Product List | Glossary Off
Versions: 1 2 3 4 5 6 7 8 9 10 11 12 13 14 15 16 17 18 19 20 21 22 23 24 25 26 27 28 29 30 31 32 33

000
FTUS41 KRNK 212105 AAB
TAFLWB
TAF AMD
KLWB 212105Z 2121/2218 28009G18KT P6SM VCSH OVC015
     FM220800 VRB03KT 3SM BR BKN012
      TEMPO 2208/2212 1SM BR
     FM221400 30008KT P6SM SCT030=

USA.gov is the U.S. government's official web portal to all federal, state and local government web resources and services.